Time;durP1;ratioP1;P1;durP2;ratioP2;P2;SDS_P1;SDS_P2;PMS_P1;PMS_P2;Temp;Humidity;BMP_temperature;BMP_pressure;BME280_temperature;BME280_humidity;BME280_pressure;Samples;Min_cycle;Max_cycle;Signal;HPM_P1;HPM_P2
2022/10/16 00:00:16;;;;;;;3.60;2.30;;;15.40;99.90;;;15.47;95.48;100624.41;5007715;28;20464;-69
2022/10/16 00:02:45;;;;;;;4.97;4.27;;;15.40;99.90;;;15.60;95.32;100626.88;5006492;28;20496;-68
2022/10/16 00:05:19;;;;;;;4.43;3.40;;;15.40;99.90;;;15.73;93.98;100621.19;5007481;28;20449;-70
2022/10/16 00:07:48;;;;;;;4.70;4.20;;;15.50;99.90;;;15.94;93.23;100628.66;5009451;28;20556;-70
2022/10/16 00:10:18;;;;;;;3.80;3.50;;;15.60;99.90;;;15.96;92.69;100631.16;5008756;28;20452;-68
2022/10/16 00:12:47;;;;;;;7.00;5.60;;;15.70;99.90;;;16.08;91.59;100629.19;5009121;28;20821;-70
2022/10/16 00:15:17;;;;;;;4.70;4.13;;;15.80;99.90;;;16.04;91.50;100634.31;5008831;28;20564;-68
2022/10/16 00:17:46;;;;;;;3.83;2.60;;;15.80;99.90;;;16.01;91.44;100634.81;5008237;28;20441;-68
2022/10/16 00:20:15;;;;;;;2.70;2.37;;;15.90;99.90;;;15.97;91.88;100628.19;5008845;28;20411;-69
2022/10/16 00:22:44;;;;;;;6.27;3.07;;;15.80;99.90;;;15.89;92.55;100628.56;5008811;28;20450;-68
2022/10/16 00:25:13;;;;;;;4.23;2.50;;;15.80;99.90;;;15.88;92.58;100640.56;5008246;28;20419;-68
2022/10/16 00:27:43;;;;;;;3.17;2.70;;;15.70;99.90;;;16.07;91.82;100641.22;5008936;28;20432;-68
2022/10/16 00:30:12;;;;;;;3.47;2.20;;;15.80;99.90;;;16.06;91.14;100647.75;4992267;28;20421;-68
2022/10/16 00:32:41;;;;;;;3.00;2.60;;;15.90;99.90;;;16.04;91.49;100641.69;4991280;28;20499;-70
2022/10/16 00:35:10;;;;;;;2.43;2.10;;;15.90;99.90;;;15.94;92.11;100655.97;5008838;28;20424;-69
2022/10/16 00:37:39;;;;;;;3.10;2.80;;;15.80;99.90;;;16.05;91.38;100657.81;5011646;28;20408;-68
2022/10/16 00:40:09;;;;;;;3.90;2.57;;;15.90;99.90;;;16.00;92.04;100663.19;5011420;28;20433;-68
2022/10/16 00:42:38;;;;;;;3.10;2.77;;;15.90;99.90;;;15.94;92.21;100655.97;4993118;28;20511;-69
2022/10/16 00:45:11;;;;;;;3.13;2.20;;;15.80;99.90;;;15.86;92.46;100653.63;5009876;28;20811;-69
2022/10/16 00:47:48;;;;;;;3.30;2.43;;;15.80;99.90;;;15.73;93.16;100647.63;5007906;28;20473;-71
2022/10/16 00:50:27;;;;;;;5.80;2.50;;;15.70;99.90;;;15.79;93.43;100652.09;5006909;28;20399;-69
2022/10/16 00:52:58;;;;;;;4.70;2.93;;;15.70;99.90;;;15.93;92.82;100650.75;4987830;28;20917;-71
2022/10/16 00:55:29;;;;;;;3.80;1.90;;;15.70;99.90;;;15.85;93.39;100651.97;4993922;28;20451;-68
2022/10/16 00:57:59;;;;;;;2.70;2.40;;;15.70;99.90;;;15.88;92.74;100646.00;5009105;28;20529;-69
2022/10/16 01:00:29;;;;;;;3.00;2.13;;;15.80;99.90;;;15.94;92.90;100661.41;5008558;28;20490;-69
2022/10/16 01:03:01;;;;;;;2.17;1.70;;;15.80;99.90;;;15.98;92.45;100661.75;5008528;28;20450;-69
2022/10/16 01:05:45;;;;;;;2.30;2.07;;;15.80;99.90;;;15.91;92.73;100659.19;5008303;28;20460;-69
2022/10/16 01:08:23;;;;;;;1.90;1.70;;;15.80;99.90;;;15.96;92.95;100659.28;5009251;28;20428;-68
2022/10/16 01:11:02;;;;;;;2.37;1.97;;;15.80;99.90;;;15.88;92.81;100662.38;5008645;28;20435;-69
2022/10/16 01:13:39;;;;;;;2.67;2.30;;;15.70;99.90;;;15.81;93.43;100672.63;5008211;28;20406;-68
2022/10/16 01:16:17;;;;;;;2.13;1.93;;;15.70;99.90;;;15.89;93.04;100663.22;5008352;28;21020;-69
2022/10/16 01:18:55;;;;;;;3.23;2.60;;;15.80;99.90;;;15.81;93.26;100669.06;4995118;28;20450;-68
2022/10/16 01:21:30;;;;;;;3.43;2.30;;;15.70;99.90;;;15.88;93.31;100676.03;5007502;28;20403;-68
2022/10/16 01:24:13;;;;;;;3.10;2.27;;;15.70;99.90;;;15.90;93.40;100676.63;5006899;28;20460;-68
2022/10/16 01:27:08;;;;;;;2.70;1.93;;;15.80;99.90;;;15.86;93.69;100672.72;5010877;28;20485;-69
2022/10/16 01:29:50;;;;;;;3.43;2.30;;;15.70;99.90;;;15.91;93.54;100675.56;5005984;28;20395;-68
2022/10/16 01:32:29;;;;;;;3.00;2.70;;;15.70;99.90;;;15.86;93.70;100675.47;5007669;28;20434;-68
2022/10/16 01:35:05;;;;;;;2.43;2.23;;;15.70;99.90;;;15.89;93.24;100680.41;5011040;28;20427;-68
2022/10/16 01:37:41;;;;;;;2.70;2.40;;;15.80;99.90;;;16.06;92.35;100680.50;4995790;28;20986;-69
2022/10/16 01:40:15;;;;;;;2.70;2.40;;;15.90;99.90;;;15.94;92.92;100688.72;5009222;28;20735;-71
2022/10/16 01:42:53;;;;;;;3.10;1.97;;;15.80;99.90;;;15.89;93.47;100690.50;5010652;28;20467;-68
2022/10/16 01:45:23;;;;;;;1.90;1.57;;;15.80;99.90;;;16.04;92.52;100694.38;4995445;28;20470;-68
2022/10/16 01:47:54;;;;;;;2.63;2.20;;;15.80;99.90;;;15.99;92.83;100688.81;5009223;28;20447;-69
2022/10/16 01:50:24;;;;;;;2.83;2.30;;;15.80;99.90;;;15.97;92.67;100693.69;5011466;28;20440;-69
2022/10/16 01:52:57;;;;;;;2.60;2.13;;;15.80;99.90;;;15.85;93.50;100692.06;5010005;28;20433;-69
2022/10/16 01:55:34;;;;;;;2.00;1.80;;;15.80;99.90;;;15.82;93.79;100690.66;4998845;28;20497;-69
2022/10/16 01:58:10;;;;;;;4.10;2.70;;;15.80;99.90;;;15.81;94.32;100686.25;5011254;28;20419;-68
2022/10/16 02:00:43;;;;;;;2.43;2.17;;;15.70;99.90;;;15.73;94.49;100692.09;5005139;28;20498;-69
2022/10/16 02:03:16;;;;;;;2.37;2.03;;;15.70;99.90;;;15.74;95.04;100688.28;5011645;28;20463;-69
2022/10/16 02:05:52;;;;;;;2.57;2.10;;;15.60;99.90;;;15.74;94.60;100693.75;5010772;28;20522;-68
2022/10/16 02:08:23;;;;;;;2.43;1.83;;;15.60;99.90;;;15.88;93.96;100706.03;5010373;28;20423;-68
2022/10/16 02:10:52;;;;;;;3.20;2.03;;;15.70;99.90;;;16.03;92.86;100711.81;5009027;28;20412;-69
2022/10/16 02:13:31;;;;;;;2.40;1.93;;;15.80;99.90;;;15.98;92.95;100710.88;5012059;28;20414;-67
2022/10/16 02:16:00;;;;;;;2.53;1.93;;;15.80;99.90;;;15.96;93.01;100705.69;5009448;28;20942;-68
2022/10/16 02:18:30;;;;;;;2.30;2.10;;;15.80;99.90;;;16.05;92.53;100717.03;5012004;28;20970;-70
2022/10/16 02:21:09;;;;;;;2.00;1.80;;;15.80;99.90;;;15.96;93.18;100734.88;5012131;28;20400;-70
2022/10/16 02:23:51;;;;;;;3.23;2.20;;;15.80;99.90;;;16.01;92.93;100737.72;5010981;28;20464;-69
2022/10/16 02:26:31;;;;;;;2.03;1.70;;;15.80;99.90;;;15.99;92.52;100729.75;5005662;28;20444;-67
2022/10/16 02:29:10;;;;;;;2.23;2.03;;;15.80;99.90;;;15.93;93.14;100722.53;5011857;28;20498;-69
2022/10/16 02:31:48;;;;;;;3.80;2.50;;;15.80;99.90;;;15.88;93.22;100725.16;5011542;28;20765;-69
2022/10/16 02:34:21;;;;;;;2.30;1.77;;;15.80;99.90;;;16.02;92.64;100725.72;5012770;28;20952;-70
2022/10/16 02:36:52;;;;;;;2.10;1.90;;;15.80;99.90;;;16.09;92.17;100726.41;5011754;28;20429;-68
2022/10/16 02:39:23;;;;;;;2.30;2.10;;;15.80;99.90;;;16.07;91.75;100737.56;5012111;28;20410;-69
2022/10/16 02:41:51;;;;;;;2.03;1.77;;;15.90;99.90;;;16.01;92.32;100744.00;5012263;28;20527;-68
2022/10/16 02:44:21;;;;;;;2.53;2.00;;;15.90;99.90;;;15.88;92.71;100736.06;5011934;28;20870;-68
2022/10/16 02:46:50;;;;;;;2.90;1.90;;;15.80;99.90;;;15.90;92.98;100733.94;4993490;28;20459;-69
2022/10/16 02:49:19;;;;;;;2.40;2.07;;;15.80;99.90;;;15.95;92.33;100739.50;5011455;28;20410;-69
2022/10/16 02:51:47;;;;;;;3.37;2.10;;;15.80;99.90;;;15.91;92.91;100743.78;5011598;28;20415;-68
2022/10/16 02:54:16;;;;;;;3.07;1.87;;;15.80;99.90;;;15.95;92.12;100736.75;5012157;28;20416;-69
2022/10/16 02:56:45;;;;;;;2.20;2.00;;;15.80;99.90;;;15.91;92.57;100738.31;5011635;28;20439;-69
2022/10/16 02:59:13;;;;;;;2.50;2.20;;;15.80;99.90;;;15.84;92.28;100737.63;5012059;28;20750;-70
2022/10/16 03:01:44;;;;;;;2.20;2.00;;;15.70;99.90;;;15.72;93.35;100736.81;5012010;28;20407;-70
2022/10/16 03:04:12;;;;;;;2.33;2.00;;;15.60;99.90;;;15.72;93.60;100738.72;5011124;28;20526;-70
2022/10/16 03:06:41;;;;;;;4.30;1.90;;;15.60;99.90;;;15.49;94.53;100734.09;5011171;28;20457;-70
2022/10/16 03:09:10;;;;;;;4.17;2.30;;;15.50;99.90;;;15.55;94.73;100741.34;5011344;28;20403;-70
2022/10/16 03:11:39;;;;;;;2.10;1.90;;;15.40;99.90;;;15.41;94.98;100742.63;5010900;28;20426;-70
2022/10/16 03:14:08;;;;;;;3.27;2.13;;;15.40;99.90;;;15.28;95.51;100748.31;5011571;28;20460;-70
2022/10/16 03:16:36;;;;;;;3.10;2.10;;;15.30;99.90;;;15.18;96.59;100754.34;5010950;28;20473;-69
2022/10/16 03:19:06;;;;;;;2.50;1.97;;;15.20;99.90;;;15.07;97.50;100747.81;5011052;28;20407;-70
2022/10/16 03:21:35;;;;;;;3.17;1.80;;;15.10;99.90;;;14.97;98.56;100747.56;5011223;28;20441;-69
2022/10/16 03:24:05;;;;;;;2.43;2.23;;;15.00;99.90;;;15.02;98.90;100761.31;4981664;28;20453;-69
2022/10/16 03:26:33;;;;;;;4.60;1.83;;;15.00;99.90;;;14.88;99.04;100759.88;5000785;28;20429;-69
2022/10/16 03:29:03;;;;;;;3.70;1.90;;;14.90;99.90;;;14.80;99.71;100768.38;5011583;28;21029;-69
2022/10/16 03:31:32;;;;;;;2.90;2.53;;;14.80;99.90;;;14.70;100.00;100758.06;5011596;28;20876;-69
2022/10/16 03:34:01;;;;;;;3.03;1.73;;;14.70;99.90;;;14.69;100.00;100769.16;4998530;28;20392;-68
2022/10/16 03:36:35;;;;;;;2.10;1.90;;;14.70;99.90;;;14.70;100.00;100773.56;5011130;28;20455;-69
2022/10/16 03:39:04;;;;;;;3.40;2.47;;;14.70;99.90;;;14.65;100.00;100776.16;5011497;28;20395;-70
2022/10/16 03:41:33;;;;;;;3.00;1.93;;;14.60;99.90;;;14.71;100.00;100769.78;5011230;28;20806;-69
2022/10/16 03:44:01;;;;;;;2.73;2.50;;;14.70;99.90;;;14.76;100.00;100780.81;5010481;28;20442;-69
2022/10/16 03:46:30;;;;;;;3.10;2.73;;;14.70;99.90;;;14.67;100.00;100779.44;5010263;28;20492;-71
2022/10/16 03:48:59;;;;;;;2.43;2.23;;;14.70;99.90;;;14.61;100.00;100780.41;5010268;28;20454;-70
2022/10/16 03:51:28;;;;;;;2.30;2.10;;;14.60;99.90;;;14.59;100.00;100787.97;5010197;28;20408;-69
2022/10/16 03:53:58;;;;;;;3.17;2.03;;;14.60;99.90;;;14.82;100.00;100804.38;5010413;28;20898;-69
2022/10/16 03:56:27;;;;;;;2.90;2.13;;;14.70;99.90;;;14.80;100.00;100806.53;5009662;28;20427;-71
2022/10/16 03:58:56;;;;;;;2.40;1.90;;;14.70;99.90;;;14.75;100.00;100803.66;5009932;28;20433;-69
2022/10/16 04:01:25;;;;;;;3.00;2.40;;;14.70;99.90;;;14.82;100.00;100804.38;5010421;28;20403;-69
2022/10/16 04:03:54;;;;;;;2.43;2.23;;;14.70;99.90;;;14.78;100.00;100808.63;5009757;28;20490;-69
2022/10/16 04:06:23;;;;;;;3.33;2.47;;;14.70;99.90;;;14.76;100.00;100802.59;5010212;28;20934;-69
2022/10/16 04:08:51;;;;;;;2.97;2.70;;;14.70;99.90;;;14.85;100.00;100803.94;5010480;28;20411;-70
2022/10/16 04:11:21;;;;;;;2.17;1.93;;;14.70;99.90;;;15.04;100.00;100813.69;5010324;28;20421;-69
2022/10/16 04:13:50;;;;;;;3.63;2.20;;;14.90;99.90;;;14.96;100.00;100819.47;5010166;28;20406;-70
2022/10/16 04:16:19;;;;;;;1.90;1.70;;;14.90;99.90;;;14.92;100.00;100818.28;5012675;28;20456;-68
2022/10/16 04:18:48;;;;;;;2.40;2.20;;;14.80;99.90;;;15.03;100.00;100822.94;5012528;28;20411;-70
2022/10/16 04:21:16;;;;;;;2.27;2.03;;;14.90;99.90;;;14.98;100.00;100817.34;5010305;28;20457;-69
2022/10/16 04:23:45;;;;;;;2.17;1.97;;;14.90;99.90;;;14.90;100.00;100817.69;5011500;28;20824;-68
2022/10/16 04:26:14;;;;;;;4.03;2.13;;;14.90;99.90;;;14.77;100.00;100817.88;5012596;28;20988;-68
2022/10/16 04:28:44;;;;;;;3.80;2.37;;;14.80;99.90;;;14.70;100.00;100812.53;5011752;28;20414;-68
2022/10/16 04:31:13;;;;;;;6.97;1.93;;;14.70;99.90;;;14.88;100.00;100818.97;5013183;28;20964;-69
2022/10/16 04:33:44;;;;;;;2.67;2.07;;;14.70;99.90;;;14.79;100.00;100804.84;5012481;28;20415;-70
2022/10/16 04:36:13;;;;;;;4.27;2.07;;;14.70;99.90;;;14.81;100.00;100801.91;5012732;28;20423;-68
2022/10/16 04:38:42;;;;;;;2.50;2.27;;;14.70;99.90;;;14.70;100.00;100808.97;5010817;28;20498;-69
2022/10/16 04:41:10;;;;;;;3.10;2.50;;;14.70;99.90;;;14.73;100.00;100806.59;5011387;28;20403;-69
2022/10/16 04:43:39;;;;;;;1.93;1.70;;;14.70;99.90;;;14.78;100.00;100806.75;4993043;28;20416;-68
2022/10/16 04:46:10;;;;;;;2.10;1.93;;;14.70;99.90;;;14.78;100.00;100803.19;5006721;28;20451;-68
2022/10/16 04:48:38;;;;;;;2.80;2.10;;;14.70;99.90;;;14.61;100.00;100794.03;5011323;28;20408;-68
2022/10/16 04:51:08;;;;;;;2.77;2.20;;;14.60;99.90;;;14.51;100.00;100791.84;5011198;28;20437;-67
2022/10/16 04:53:36;;;;;;;3.13;2.83;;;14.50;99.90;;;14.44;100.00;100791.09;5012549;28;20449;-70
2022/10/16 04:56:06;;;;;;;2.50;2.30;;;14.50;99.90;;;14.38;100.00;100796.66;5010282;28;20438;-69
2022/10/16 04:58:34;;;;;;;2.57;2.30;;;14.40;99.90;;;14.34;100.00;100797.06;4992713;28;20419;-68
2022/10/16 05:01:03;;;;;;;3.10;2.13;;;14.30;99.90;;;14.30;100.00;100800.47;5010934;28;20403;-67
2022/10/16 05:03:33;;;;;;;5.00;2.40;;;14.30;99.90;;;14.27;100.00;100798.22;4997032;28;20418;-69
2022/10/16 05:06:03;;;;;;;2.90;2.70;;;14.30;99.90;;;14.29;100.00;100815.13;5010866;28;20443;-68
2022/10/16 05:08:32;;;;;;;4.07;2.90;;;14.30;99.90;;;14.46;100.00;100818.94;5011585;28;20421;-68
2022/10/16 05:11:04;;;;;;;2.63;2.40;;;14.40;99.90;;;14.44;100.00;100831.09;5014185;28;20425;-68
2022/10/16 05:13:33;;;;;;;3.90;2.87;;;14.40;99.90;;;14.34;100.00;100832.44;5014466;28;20443;-68
2022/10/16 05:16:02;;;;;;;3.30;2.67;;;14.30;99.90;;;14.26;100.00;100838.19;5038705;23;20498;-85
2022/10/16 05:18:33;;;;;;;4.37;2.50;;;14.30;99.90;;;14.20;100.00;100836.38;4997373;28;20410;-83
2022/10/16 05:21:01;;;;;;;3.27;2.53;;;14.20;99.90;;;14.18;100.00;100834.97;4982871;28;20465;-84
2022/10/16 05:23:30;;;;;;;3.00;2.70;;;14.20;99.90;;;14.20;100.00;100839.09;4982770;28;20438;-84
2022/10/16 05:26:01;;;;;;;2.60;2.07;;;14.20;99.90;;;14.30;100.00;100839.41;4989470;28;20474;-84
2022/10/16 05:28:31;;;;;;;4.00;2.90;;;14.20;99.90;;;14.37;100.00;100833.94;4985648;28;20501;-85
2022/10/16 05:31:00;;;;;;;3.57;2.90;;;14.30;99.90;;;14.45;100.00;100835.50;4986251;28;20405;-84
2022/10/16 05:33:29;;;;;;;2.83;2.60;;;14.30;99.90;;;14.44;100.00;100833.81;4984825;28;20461;-84
2022/10/16 05:36:03;;;;;;;2.70;1.97;;;14.30;99.90;;;14.38;100.00;100829.31;4982825;28;20449;-84
2022/10/16 05:38:31;;;;;;;3.00;2.70;;;14.30;99.90;;;14.50;100.00;100835.63;4983031;28;20448;-86
2022/10/16 05:41:00;;;;;;;7.83;2.23;;;14.40;99.90;;;14.61;100.00;100846.59;4984936;28;20446;-84
2022/10/16 05:43:30;;;;;;;4.43;2.70;;;14.50;99.90;;;14.72;100.00;100859.41;4984842;28;20451;-85
2022/10/16 05:46:02;;;;;;;2.60;2.23;;;14.60;99.90;;;14.80;100.00;100850.09;4985637;28;20838;-85
2022/10/16 05:48:32;;;;;;;2.53;2.33;;;14.70;99.90;;;14.75;100.00;100858.97;4981030;28;20453;-85
2022/10/16 05:51:06;;;;;;;2.50;2.30;;;14.70;99.90;;;14.87;100.00;100867.19;4986396;28;20442;-85
2022/10/16 05:53:38;;;;;;;2.70;2.50;;;14.70;99.90;;;14.91;100.00;100857.47;4985798;28;20437;-84
2022/10/16 05:56:08;;;;;;;2.53;2.33;;;14.80;99.90;;;15.07;100.00;100854.09;5002140;28;20455;-83
2022/10/16 05:58:40;;;;;;;3.13;2.83;;;14.80;99.90;;;15.13;100.00;100855.91;4986224;28;20489;-85
2022/10/16 06:01:13;;;;;;;7.80;2.53;;;14.90;99.90;;;15.13;99.49;100858.63;4987278;28;20422;-84
2022/10/16 06:03:42;;;;;;;4.77;3.27;;;15.00;99.90;;;15.21;99.15;100860.19;4987328;28;20413;-84
2022/10/16 06:06:14;;;;;;;3.50;2.73;;;15.00;99.90;;;15.27;98.30;100856.53;4975922;28;20436;-82
2022/10/16 06:08:46;;;;;;;2.33;2.10;;;15.10;99.90;;;15.19;98.03;100860.44;4988503;28;20443;-83
2022/10/16 06:11:20;;;;;;;4.20;2.80;;;15.10;99.90;;;15.21;98.67;100871.91;4988420;28;20522;-84
2022/10/16 06:13:52;;;;;;;3.70;2.50;;;15.10;99.90;;;15.53;96.34;100877.13;4997459;28;20409;-83
2022/10/16 06:16:21;;;;;;;6.13;3.20;;;15.20;99.90;;;15.40;96.63;100880.00;5001914;28;20462;-85
2022/10/16 06:18:52;;;;;;;6.23;3.03;;;15.20;99.90;;;15.40;96.94;100880.00;5007387;28;20504;-84
2022/10/16 06:21:25;;;;;;;3.43;2.20;;;15.20;99.90;;;15.46;96.58;100869.00;5009985;28;20433;-83
2022/10/16 06:23:55;;;;;;;2.40;2.10;;;15.20;99.90;;;15.41;96.26;100873.50;5010206;28;20473;-83
2022/10/16 06:26:27;;;;;;;3.30;2.40;;;15.20;99.90;;;15.64;94.96;100873.56;5014148;28;20520;-83
2022/10/16 06:28:58;;;;;;;4.00;2.63;;;15.40;99.90;;;15.59;95.07;100881.63;5014493;28;20427;-82
2022/10/16 06:31:30;;;;;;;4.83;2.70;;;15.40;99.90;;;15.58;95.26;100885.44;5017270;28;20397;-82
2022/10/16 06:34:00;;;;;;;2.40;2.20;;;15.40;99.90;;;15.60;95.38;100896.91;5018321;28;20419;-81
2022/10/16 06:36:30;;;;;;;3.10;2.60;;;15.40;99.90;;;15.57;95.51;100900.13;5016540;28;20545;-83
2022/10/16 06:38:59;;;;;;;3.20;2.13;;;15.40;99.90;;;15.63;95.14;100904.66;4990097;28;20431;-84
2022/10/16 06:41:27;;;;;;;3.50;3.00;;;15.40;99.90;;;15.75;94.24;100904.66;5005160;28;20463;-83
2022/10/16 06:43:58;;;;;;;3.30;3.00;;;;;;;16.01;92.04;100905.03;4980859;28;20421;-85
2022/10/16 06:46:28;;;;;;;2.90;2.70;;;;;;;15.93;91.94;100910.81;5004612;28;20780;-84
2022/10/16 06:48:57;;;;;;;3.47;3.10;;;;;;;16.05;91.96;100916.28;5003595;28;20403;-84
2022/10/16 06:51:26;;;;;;;5.00;4.07;;;;;;;16.14;91.23;100923.06;4990410;28;20461;-85
2022/10/16 06:53:57;;;;;;;2.80;2.50;;;;;;;16.30;89.55;100908.69;5002589;28;20536;-85
2022/10/16 06:56:33;;;;;;;6.40;3.10;;;;;;;16.24;90.00;100911.53;5002247;28;20488;-83
2022/10/16 06:59:03;;;;;;;4.03;3.17;;;;;;;16.30;89.99;100910.59;4989346;28;20525;-83
2022/10/16 07:01:32;;;;;;;4.93;4.47;;;;;;;16.57;88.40;100922.66;4989064;28;20455;-83
2022/10/16 07:04:02;;;;;;;3.20;2.87;;;;;;;16.73;86.93;100932.03;5001595;28;20441;-84
2022/10/16 07:06:34;;;;;;;3.17;2.67;;;;;;;16.66;87.30;100931.31;5004834;28;20449;-84
2022/10/16 07:09:07;;;;;;;2.87;2.50;;;;;;;16.56;88.17;100936.53;5012111;28;20413;-83
2022/10/16 07:11:37;;;;;;;3.47;2.40;;;;;;;16.74;87.22;100944.63;4994765;28;20428;-84
2022/10/16 07:14:06;;;;;;;7.83;2.97;;;;;;;16.87;86.73;100950.66;4988726;28;20449;-83
2022/10/16 07:16:35;;;;;;;3.30;3.00;;;;;;;16.95;86.55;100961.19;4989348;28;20452;-85
2022/10/16 07:19:05;;;;;;;3.33;2.60;;;;;;;17.03;85.57;100961.91;5004831;28;20409;-84
2022/10/16 07:21:36;;;;;;;3.00;2.70;;;;;;;17.02;85.37;100958.34;5004393;28;20845;-85
2022/10/16 07:24:11;;;;;;;2.73;2.40;;;;;;;16.95;85.50;100941.22;4991149;28;20453;-83
2022/10/16 07:26:42;;;;;;;2.90;2.17;;;;;;;16.93;86.07;100938.75;5005122;28;20454;-85
2022/10/16 07:29:15;;;;;;;2.77;2.47;;;;;;;17.20;85.25;100943.63;4991742;28;20455;-85
2022/10/16 07:31:46;;;;;;;4.00;2.60;;;;;;;17.32;84.06;100942.50;5002450;28;20771;-83
2022/10/16 07:34:17;;;;;;;7.13;3.13;;;;;;;17.54;83.00;100948.09;5003297;28;20408;-86
2022/10/16 07:36:50;;;;;;;3.80;2.93;;;;;;;17.48;83.21;100934.56;5003466;28;20455;-83
2022/10/16 07:39:20;;;;;;;4.53;3.27;;;;;;;17.71;82.05;100942.69;5003571;28;20412;-84
2022/10/16 07:41:50;;;;;;;3.83;3.33;;;;;;;17.67;82.20;100949.72;4993498;28;20430;-85
2022/10/16 07:44:18;;;;;;;3.17;2.50;;;;;;;17.76;82.18;100954.56;4985866;28;20918;-84
2022/10/16 07:46:48;;;;;;;2.97;2.67;;;;;;;17.75;82.08;100963.84;5003660;28;20446;-86
2022/10/16 07:49:17;;;;;;;1.93;1.63;;;;;;;17.69;82.05;100953.03;4992240;28;20490;-84
2022/10/16 07:51:46;;;;;;;2.43;1.90;;;;;;;17.73;82.08;100952.28;5001974;28;20415;-84
2022/10/16 07:54:15;;;;;;;3.70;2.23;;;;;;;17.91;80.89;100950.41;5004810;28;20508;-84
2022/10/16 07:56:46;;;;;;;2.53;2.10;;;;;;;17.78;81.02;100951.53;5003555;28;20447;-84
2022/10/16 07:59:15;;;;;;;7.03;2.80;;;;;;;17.61;81.92;100950.72;4996057;28;20435;-84
2022/10/16 08:01:44;;;;;;;1.87;1.70;;;;;;;17.67;81.77;100966.97;5007992;28;20438;-83
2022/10/16 08:04:13;;;;;;;2.17;1.97;;;;;;;17.78;81.40;100970.72;5002755;28;21011;-83
2022/10/16 08:06:42;;;;;;;2.70;2.10;;;;;;;17.71;82.12;100981.00;5001832;28;20466;-82
2022/10/16 08:09:12;;;;;;;2.37;1.90;;;;;;;17.52;83.05;100988.56;4983638;28;20446;-83
2022/10/16 08:11:41;;;;;;;2.37;2.17;;;;;;;17.72;82.86;100988.94;4997106;28;20463;-84
2022/10/16 08:14:11;;;;;;;2.40;1.60;;;;;;;17.88;81.77;100991.94;5000871;28;20462;-83
2022/10/16 08:16:40;;;;;;;2.83;1.80;;;;;;;17.85;81.15;100990.56;5002305;28;20509;-84
2022/10/16 08:19:09;;;;;;;2.40;2.00;;;;;;;17.91;81.59;100994.22;5000833;28;20421;-84
2022/10/16 08:21:38;;;;;;;2.27;1.87;;;;;;;17.93;80.86;100994.78;5001432;28;20438;-84
2022/10/16 08:24:08;;;;;;;3.60;1.90;;;;;;;17.90;81.06;100981.59;4986225;28;20420;-83
2022/10/16 08:26:37;;;;;;;2.33;1.90;;;;;;;17.95;80.51;100978.94;5002513;28;20463;-84
2022/10/16 08:29:06;;;;;;;2.13;1.93;;;;;;;17.96;80.37;100983.34;5003672;28;20408;-83
2022/10/16 08:31:36;;;;;;;4.67;1.70;;;;;;;17.95;80.58;100989.88;4984548;28;20416;-82
2022/10/16 08:34:06;;;;;;;3.07;1.67;;;;;;;18.03;80.75;100997.69;5001636;28;20469;-83
2022/10/16 08:36:38;;;;;;;2.70;2.50;;;;;;;18.04;80.33;100999.34;5002374;28;20463;-84
2022/10/16 08:39:07;;;;;;;4.43;1.83;;;;;;;18.02;79.70;101001.50;5000558;28;20420;-85
2022/10/16 08:42:06;;;;;;;3.33;2.53;;;;;;;18.07;80.29;100994.19;5005471;28;20424;-83
2022/10/16 08:45:27;;;;;;;3.50;2.20;;;;;;;18.31;79.17;101000.31;4988870;28;20408;-85
2022/10/16 08:48:09;;;;;;;3.10;2.40;;;;;;;18.45;78.61;100996.16;4894651;29;20398;-83
2022/10/16 08:51:09;;;;;;;4.87;1.90;;;;;;;18.61;77.20;100998.06;4893141;29;20513;-83
2022/10/16 08:53:44;;;;;;;2.00;1.60;;;;;;;18.60;77.11;100990.94;4980279;28;20893;-85
2022/10/16 08:56:13;;;;;;;2.47;2.27;;;;;;;18.66;77.34;101008.28;5021738;28;20523;-84
2022/10/16 08:58:43;;;;;;;3.80;1.87;;;;;;;18.74;76.64;101001.50;4988205;28;20534;-83
2022/10/16 09:01:15;;;;;;;2.60;1.90;;;;;;;18.97;75.49;101015.84;5015196;28;20433;-85
2022/10/16 09:04:02;;;;;;;2.27;1.77;;;;;;;19.02;75.55;101020.56;4989152;28;20438;-84
2022/10/16 09:06:43;;;;;;;1.90;1.60;;;;;;;19.15;75.11;101022.09;4988641;28;20476;-83
2022/10/16 09:09:34;;;;;;;2.30;1.63;;;;;;;19.24;74.40;101026.88;4993375;28;20476;-85
2022/10/16 09:12:11;;;;;;;1.70;1.37;;;;;;;19.44;74.10;101024.41;5010616;28;20920;-85
2022/10/16 09:14:54;;;;;;;2.73;2.53;;;;;;;19.80;71.91;101030.25;4997191;28;20397;-83
2022/10/16 09:17:34;;;;;;;3.47;2.97;;;;;;;19.62;72.59;101033.34;5015838;28;20450;-85
2022/10/16 09:20:35;;;;;;;3.03;2.20;;;;;;;19.47;72.85;101034.00;5029739;28;20505;-84
2022/10/16 09:23:17;;;;;;;4.67;2.23;;;;;;;19.50;72.77;101026.13;4999155;28;20441;-85
2022/10/16 09:25:48;;;;;;;2.40;1.73;;;;;;;19.49;73.30;101029.94;5012769;28;20486;-84
2022/10/16 09:28:20;;;;;;;4.27;2.30;;;;;;;19.45;73.60;101027.97;5004636;28;20408;-83
2022/10/16 09:30:50;;;;;;;2.90;2.30;;;;;;;19.30;73.69;101028.59;4987372;28;20457;-84
2022/10/16 09:33:24;;;;;;;2.10;1.83;;;;;;;19.08;73.83;101035.97;5008242;28;20437;-85
2022/10/16 09:35:58;;;;;;;2.60;2.40;;;;;;;19.14;74.18;101025.91;5021701;28;20466;-85
2022/10/16 09:38:30;;;;;;;2.37;2.17;;;;;;;19.17;74.35;101039.94;5005516;28;20469;-84
2022/10/16 09:41:01;;;;;;;2.20;2.00;;;;;;;19.13;74.31;101032.47;5006429;28;20440;-84
2022/10/16 09:43:40;;;;;;;6.23;2.23;;;;;;;19.18;73.84;101041.59;4991099;28;20424;-84
2022/10/16 09:46:22;;;;;;;2.97;1.80;;;;;;;19.20;73.55;101046.84;4987589;28;20999;-84
2022/10/16 09:48:54;;;;;;;2.37;1.60;;;;;;;19.07;73.90;101054.34;4983502;28;20944;-83
2022/10/16 09:51:27;;;;;;;2.17;1.90;;;;;;;19.00;74.00;101066.59;4984834;28;21061;-85
2022/10/16 09:54:00;;;;;;;2.07;1.60;;;;;;;18.93;75.00;101071.41;5002988;28;20472;-85
2022/10/16 09:56:32;;;;;;;2.30;1.77;;;;;;;19.15;73.97;101061.31;4989752;28;20468;-86
2022/10/16 09:59:04;;;;;;;2.10;2.00;;;;;;;19.07;73.41;101059.81;5006842;28;20502;-85
2022/10/16 10:01:38;;;;;;;2.40;1.60;;;;;;;19.32;72.72;101066.72;5008416;28;20590;-84
2022/10/16 10:04:08;;;;;;;4.37;1.80;;;;;;;19.58;72.12;101065.97;4996992;28;20508;-85
2022/10/16 10:06:44;;;;;;;1.93;1.47;;;;;;;20.01;71.22;101067.81;4999011;28;20462;-85
2022/10/16 10:09:21;;;;;;;2.47;1.57;;;;;;;20.12;69.31;101076.97;4993504;28;20441;-84
2022/10/16 10:11:53;;;;;;;2.13;1.67;;;;;;;19.95;69.21;101082.56;4989188;28;20449;-84
2022/10/16 10:14:25;;;;;;;2.10;1.80;;;;;;;19.71;69.96;101075.72;5005543;28;20433;-85
2022/10/16 10:17:11;;;;;;;1.93;1.53;;;;;;;19.74;70.45;101075.22;4987426;28;20462;-84
2022/10/16 10:19:41;;;;;;;1.93;1.73;;;;;;;19.58;70.50;101076.97;5005963;28;20464;-84
2022/10/16 10:22:26;;;;;;;1.97;1.57;;;;;;;19.60;70.61;101082.22;4990756;28;20438;-85
2022/10/16 10:25:18;;;;;;;3.10;1.70;;;;;;;19.53;71.01;101085.97;5006231;28;20500;-84
2022/10/16 10:28:03;;;;;;;1.90;1.70;;;;;;;19.72;70.35;101072.72;4985998;28;20408;-85
2022/10/16 10:30:42;;;;;;;2.23;1.30;;;;;;;19.67;70.46;101091.06;5007831;28;20423;-85
2022/10/16 10:33:22;;;;;;;6.13;1.60;;;;;;;19.82;69.84;101099.47;4994959;28;20450;-83
2022/10/16 10:35:57;;;;;;;2.17;1.73;;;;;;;19.71;69.72;101103.19;4993770;28;20501;-84
2022/10/16 10:38:40;;;;;;;2.00;1.30;;;;;;;19.59;70.52;101110.75;5004433;28;21120;-83
2022/10/16 10:41:24;;;;;;;1.70;1.60;;;;;;;19.73;70.47;101118.31;5000370;28;20449;-85
2022/10/16 10:44:09;;;;;;;2.30;1.70;;;;;;;19.81;69.56;101114.28;4993454;28;20492;-86
2022/10/16 10:46:43;;;;;;;1.93;1.67;;;;;;;20.04;68.49;101114.00;4990454;28;20541;-85
2022/10/16 10:49:41;;;;;;;1.70;1.60;;;;;;;20.11;68.64;101102.78;4992161;28;20383;-83
2022/10/16 10:52:26;;;;;;;6.50;1.60;;;;;;;20.42;67.28;101104.75;4988962;28;20446;-84
2022/10/16 10:55:08;;;;;;;4.03;2.07;;;;;;;20.63;66.25;101106.56;4985057;28;20432;-83
2022/10/16 10:57:47;;;;;;;2.63;1.77;;;;;;;21.00;64.79;101106.56;5009737;28;21026;-84
2022/10/16 11:00:27;;;;;;;4.73;1.40;;;;;;;21.28;63.48;101107.28;5006888;28;20489;-84